Time;durP1;ratioP1;P1;durP2;ratioP2;P2;SDS_P1;SDS_P2;PMS_P1;PMS_P2;Temp;Humidity;BMP_temperature;BMP_pressure;BME280_temperature;BME280_humidity;BME280_pressure;Samples;Min_cycle;Max_cycle;Signal;HPM_P1;HPM_P2
2023/06/30 00:01:29;;;;;;;7.93;1.95;;;16.60;99.90;;;;;;5070967;28;20049;-52
2023/06/30 00:03:56;;;;;;;13.07;2.72;;;16.60;99.90;;;;;;5064773;28;20139;-53
2023/06/30 00:06:22;;;;;;;6.82;2.42;;;16.60;99.90;;;;;;5054075;28;20033;-52
2023/06/30 00:08:50;;;;;;;7.78;2.50;;;16.60;99.90;;;;;;5055621;28;20108;-54
2023/06/30 00:11:17;;;;;;;12.10;2.45;;;16.60;99.90;;;;;;5068439;28;20413;-50
2023/06/30 00:13:43;;;;;;;6.50;2.20;;;16.60;99.90;;;;;;5068952;28;20047;-50
2023/06/30 00:16:09;;;;;;;11.52;2.85;;;16.60;99.90;;;;;;5053128;28;20485;-50
2023/06/30 00:18:35;;;;;;;7.18;2.00;;;16.60;99.90;;;;;;5059186;28;20041;-53
2023/06/30 00:21:01;;;;;;;9.73;2.65;;;16.60;99.90;;;;;;5064669;28;20155;-50
2023/06/30 00:23:27;;;;;;;;;;;16.60;99.90;;;;;;5052465;28;20029;-51
2023/06/30 00:25:53;;;;;;;10.85;2.75;;;16.50;99.90;;;;;;5069197;28;19916;-51
2023/06/30 00:28:19;;;;;;;11.35;3.22;;;16.60;99.90;;;;;;5060555;28;20397;-50
2023/06/30 00:30:45;;;;;;;17.80;3.40;;;16.50;99.90;;;;;;5067780;28;20106;-50
2023/06/30 00:33:10;;;;;;;10.50;2.95;;;16.50;99.90;;;;;;5069043;28;20534;-55
2023/06/30 00:35:36;;;;;;;4.68;2.00;;;16.50;99.90;;;;;;5057521;28;20099;-54
2023/06/30 00:38:02;;;;;;;9.02;2.38;;;16.50;99.90;;;;;;5054103;28;20043;-50
2023/06/30 00:40:27;;;;;;;9.23;2.83;;;16.50;99.90;;;;;;5055053;28;20037;-50
2023/06/30 00:42:53;;;;;;;8.63;2.83;;;16.50;99.90;;;;;;5054321;28;20041;-51
2023/06/30 00:45:18;;;;;;;13.05;2.78;;;16.50;99.90;;;;;;5052913;28;20052;-53
2023/06/30 00:47:44;;;;;;;7.25;2.83;;;16.50;99.90;;;;;;5055809;28;20073;-53
2023/06/30 00:50:12;;;;;;;9.73;2.05;;;16.50;99.90;;;;;;5061090;28;20147;-50
2023/06/30 00:52:37;;;;;;;10.00;2.25;;;16.40;99.90;;;;;;5070356;28;20191;-50
2023/06/30 00:55:04;;;;;;;10.80;2.45;;;16.40;99.90;;;;;;5062769;28;20154;-54
2023/06/30 00:57:30;;;;;;;10.52;2.85;;;16.30;99.90;;;;;;5062437;28;20068;-50
2023/06/30 00:59:56;;;;;;;12.95;2.50;;;16.30;99.90;;;;;;5059443;28;20536;-50
2023/06/30 01:02:27;;;;;;;22.92;3.15;;;16.30;99.90;;;;;;5069327;28;20028;-52
2023/06/30 01:04:57;;;;;;;15.05;2.70;;;16.20;99.90;;;;;;5055390;28;20060;-55
2023/06/30 01:07:36;;;;;;;9.60;2.80;;;16.20;99.90;;;;;;5055955;28;20041;-51
2023/06/30 01:10:08;;;;;;;10.43;3.05;;;16.10;99.90;;;;;;5061467;28;20044;-54
2023/06/30 01:12:34;;;;;;;11.07;2.63;;;16.00;99.90;;;;;;5065005;28;20441;-55
2023/06/30 01:15:01;;;;;;;6.70;2.17;;;16.00;99.90;;;;;;5067527;28;20343;-55
2023/06/30 01:17:27;;;;;;;9.57;2.13;;;16.00;99.90;;;;;;5066766;28;20075;-51
2023/06/30 01:19:54;;;;;;;9.38;2.60;;;15.90;99.90;;;;;;5067064;28;20082;-51
2023/06/30 01:22:28;;;;;;;14.27;2.20;;;15.80;99.90;;;;;;5049552;28;20052;-57
2023/06/30 01:24:58;;;;;;;13.60;2.45;;;15.80;99.90;;;;;;5048262;28;20044;-53
2023/06/30 01:27:24;;;;;;;9.85;2.17;;;15.80;99.90;;;;;;5070364;28;20480;-56
2023/06/30 01:29:51;;;;;;;;;;;15.70;99.90;;;;;;5069184;28;20043;-55
2023/06/30 01:32:17;;;;;;;;;;;15.70;99.90;;;;;;5065873;28;19924;-51
2023/06/30 01:34:46;;;;;;;4.90;1.85;;;15.70;99.90;;;;;;5061449;28;19924;-56
2023/06/30 01:37:13;;;;;;;4.03;2.30;;;15.60;99.90;;;;;;5066957;28;20068;-51
2023/06/30 01:39:40;;;;;;;13.00;2.30;;;15.60;99.90;;;;;;5068530;28;20078;-55
2023/06/30 01:42:06;;;;;;;7.88;2.15;;;15.50;99.90;;;;;;5052441;28;20371;-51
2023/06/30 01:44:33;;;;;;;9.75;2.33;;;15.40;99.90;;;;;;5058308;28;20059;-50
2023/06/30 01:46:59;;;;;;;5.90;1.80;;;15.40;99.90;;;;;;5054984;28;20076;-51
2023/06/30 01:49:25;;;;;;;10.82;2.88;;;15.40;99.90;;;;;;5055870;28;20060;-52
2023/06/30 01:51:51;;;;;;;;;;;15.30;99.90;;;;;;5055537;28;20037;-51
2023/06/30 01:54:16;;;;;;;5.75;1.83;;;15.30;99.90;;;;;;5051413;28;20316;-55
2023/06/30 01:56:49;;;;;;;9.07;2.75;;;15.30;99.90;;;;;;5062983;28;20045;-54
2023/06/30 01:59:15;;;;;;;8.50;2.15;;;15.20;99.90;;;;;;5061860;28;20033;-52
2023/06/30 02:01:41;;;;;;;;;;;15.20;99.90;;;;;;5062728;28;20440;-50
2023/06/30 02:04:07;;;;;;;7.47;2.25;;;15.20;99.90;;;;;;5065719;28;19922;-53
2023/06/30 02:06:33;;;;;;;;;;;15.10;99.90;;;;;;5058693;28;20040;-55
2023/06/30 02:08:58;;;;;;;6.10;2.03;;;15.10;99.90;;;;;;5050424;28;19917;-51
2023/06/30 02:11:24;;;;;;;5.10;1.98;;;15.00;99.90;;;;;;5057868;28;20029;-51
2023/06/30 02:13:49;;;;;;;7.60;1.95;;;14.90;99.90;;;;;;5054908;28;20060;-50
2023/06/30 02:16:15;;;;;;;4.57;2.33;;;14.90;99.90;;;;;;5056790;28;20539;-53
2023/06/30 02:18:41;;;;;;;6.60;2.30;;;14.80;99.90;;;;;;5067816;28;20057;-53
2023/06/30 02:21:06;;;;;;;9.25;2.95;;;14.80;99.90;;;;;;5066837;28;20048;-50
2023/06/30 02:23:32;;;;;;;6.93;1.85;;;14.70;99.90;;;;;;5067598;28;20397;-51
2023/06/30 02:25:58;;;;;;;;;;;14.70;99.90;;;;;;5055616;28;20065;-50
2023/06/30 02:28:23;;;;;;;8.45;2.20;;;14.60;99.90;;;;;;5047692;28;19982;-53
2023/06/30 02:30:49;;;;;;;5.25;1.58;;;14.50;99.90;;;;;;5062484;28;20041;-53
2023/06/30 02:33:15;;;;;;;5.15;1.60;;;14.40;99.90;;;;;;5065845;28;20041;-50
2023/06/30 02:35:42;;;;;;;5.22;1.98;;;14.40;99.90;;;;;;5060323;28;20079;-50
2023/06/30 02:38:07;;;;;;;4.75;2.00;;;14.30;99.90;;;;;;5062414;28;20037;-50
2023/06/30 02:40:33;;;;;;;6.40;2.03;;;14.20;99.90;;;;;;5058101;28;20516;-50
2023/06/30 02:42:59;;;;;;;6.28;1.60;;;14.10;99.90;;;;;;5066608;28;20386;-50
2023/06/30 02:45:25;;;;;;;9.13;1.33;;;14.10;99.90;;;;;;5062312;28;20040;-50
2023/06/30 02:47:50;;;;;;;6.70;2.00;;;14.00;99.90;;;;;;5062424;28;20482;-52
2023/06/30 02:50:16;;;;;;;5.57;1.83;;;14.00;99.90;;;;;;5064741;28;20033;-50
2023/06/30 02:52:41;;;;;;;10.25;1.77;;;13.90;99.90;;;;;;5055766;28;20086;-50
2023/06/30 02:55:08;;;;;;;6.88;2.45;;;13.80;99.90;;;;;;5064292;28;20383;-50
2023/06/30 02:57:34;;;;;;;10.80;2.50;;;13.80;99.90;;;;;;5051518;28;20353;-50
2023/06/30 02:59:59;;;;;;;9.27;1.52;;;13.80;99.90;;;;;;5064920;28;20448;-54
2023/06/30 03:02:25;;;;;;;7.95;1.73;;;13.70;99.90;;;;;;5051840;28;20074;-50
2023/06/30 03:04:50;;;;;;;6.47;1.50;;;13.70;99.90;;;;;;5049297;28;20072;-54
2023/06/30 03:07:16;;;;;;;7.30;2.00;;;13.60;99.90;;;;;;5064355;28;20033;-50
2023/06/30 03:09:42;;;;;;;10.30;2.20;;;13.60;99.90;;;;;;5067066;28;20029;-50
2023/06/30 03:12:08;;;;;;;5.05;2.20;;;13.60;99.90;;;;;;5052444;28;20052;-51
2023/06/30 03:14:33;;;;;;;6.13;2.33;;;13.60;99.90;;;;;;5066711;28;20119;-50
2023/06/30 03:16:59;;;;;;;7.43;2.08;;;13.50;99.90;;;;;;5063422;28;20070;-50
2023/06/30 03:19:25;;;;;;;5.28;1.85;;;13.40;99.90;;;;;;5061240;28;20043;-53
2023/06/30 03:21:50;;;;;;;3.95;1.73;;;13.40;99.90;;;;;;5060696;28;20041;-50
2023/06/30 03:24:16;;;;;;;4.63;2.28;;;13.30;99.90;;;;;;5065753;28;20037;-51
2023/06/30 03:26:42;;;;;;;4.80;1.23;;;13.30;99.90;;;;;;5061515;28;20043;-54
2023/06/30 03:29:07;;;;;;;5.97;1.83;;;13.20;99.90;;;;;;5066688;28;20032;-53
2023/06/30 03:31:33;;;;;;;4.03;0.95;;;13.10;99.90;;;;;;5058151;28;20474;-52
2023/06/30 03:33:59;;;;;;;3.38;1.67;;;13.10;99.90;;;;;;5048236;28;20091;-50
2023/06/30 03:36:24;;;;;;;5.25;1.45;;;13.10;99.90;;;;;;5055997;28;20033;-51
2023/06/30 03:38:50;;;;;;;10.30;1.98;;;13.00;99.90;;;;;;5066567;28;20406;-50
2023/06/30 03:41:16;;;;;;;9.45;2.22;;;13.10;99.90;;;;;;5061964;28;20315;-52
2023/06/30 03:43:41;;;;;;;3.92;1.85;;;13.10;99.90;;;;;;5051559;28;20051;-52
2023/06/30 03:46:09;;;;;;;6.75;1.98;;;13.10;99.90;;;;;;5063436;28;20119;-53
2023/06/30 03:48:35;;;;;;;8.77;1.77;;;13.10;99.90;;;;;;5048523;28;20029;-53
2023/06/30 03:51:00;;;;;;;9.23;2.13;;;13.10;99.90;;;;;;5055423;28;20412;-51
2023/06/30 03:53:26;;;;;;;4.43;1.58;;;13.10;99.90;;;;;;5048633;28;20409;-54
2023/06/30 03:55:52;;;;;;;10.30;2.15;;;13.20;99.90;;;;;;5049581;28;20095;-51
2023/06/30 03:58:17;;;;;;;12.02;2.55;;;13.20;99.90;;;;;;5062868;28;20682;-50
2023/06/30 04:00:43;;;;;;;5.00;2.10;;;13.20;99.90;;;;;;5067165;28;20029;-50
2023/06/30 04:03:08;;;;;;;9.50;2.20;;;13.20;99.90;;;;;;5050873;28;20370;-54
2023/06/30 04:05:34;;;;;;;6.45;2.08;;;13.20;99.90;;;;;;5054305;28;20036;-54
2023/06/30 04:08:00;;;;;;;8.60;1.88;;;13.20;99.90;;;;;;5050527;28;20037;-53
2023/06/30 04:10:25;;;;;;;8.77;2.03;;;13.20;99.90;;;;;;5057097;28;20478;-50
2023/06/30 04:12:51;;;;;;;7.93;2.30;;;13.10;99.90;;;;;;5060962;28;20432;-50
2023/06/30 04:15:16;;;;;;;8.75;2.53;;;13.10;99.90;;;;;;5052346;28;20040;-50
2023/06/30 04:17:42;;;;;;;8.52;2.25;;;13.10;99.90;;;;;;5054960;28;20160;-50
2023/06/30 04:20:09;;;;;;;5.03;1.58;;;13.20;99.90;;;;;;5048746;28;20052;-52
2023/06/30 04:22:38;;;;;;;9.23;2.25;;;13.20;99.90;;;;;;5056554;28;20043;-54
2023/06/30 04:25:05;;;;;;;8.77;2.28;;;13.20;99.90;;;;;;5052447;28;20512;-50
2023/06/30 04:27:31;;;;;;;4.32;2.00;;;13.20;99.90;;;;;;5056597;28;20060;-53
2023/06/30 04:29:56;;;;;;;7.80;2.15;;;13.20;99.90;;;;;;5067148;28;20087;-51
2023/06/30 04:32:22;;;;;;;8.98;2.75;;;13.20;99.90;;;;;;5059201;28;20044;-51
2023/06/30 04:34:47;;;;;;;6.65;2.38;;;13.20;99.90;;;;;;5063683;28;20470;-51
2023/06/30 04:37:14;;;;;;;7.55;2.67;;;13.30;99.90;;;;;;5062973;28;20025;-55
2023/06/30 04:39:42;;;;;;;7.22;2.58;;;13.30;99.90;;;;;;5065822;28;20032;-50
2023/06/30 04:42:08;;;;;;;7.88;2.65;;;13.30;99.90;;;;;;5064297;28;20429;-54
2023/06/30 04:44:33;;;;;;;8.50;2.95;;;13.30;99.90;;;;;;5049469;28;20036;-55
2023/06/30 04:46:59;;;;;;;8.55;2.90;;;13.30;99.90;;;;;;5052467;28;20415;-51
2023/06/30 04:49:24;;;;;;;9.30;2.60;;;13.40;99.90;;;;;;5069424;28;20470;-50
2023/06/30 04:51:50;;;;;;;7.32;2.83;;;13.40;99.90;;;;;;5068785;28;20044;-50
2023/06/30 04:54:16;;;;;;;13.95;3.15;;;13.50;99.90;;;;;;5062695;28;20048;-55
2023/06/30 04:56:41;;;;;;;6.00;2.35;;;13.50;99.90;;;;;;5052170;28;20049;-51
2023/06/30 04:59:07;;;;;;;6.43;3.30;;;13.50;99.90;;;;;;5067364;28;20113;-50
2023/06/30 05:01:33;;;;;;;9.90;3.55;;;13.50;99.90;;;;;;5068898;28;20487;-51
2023/06/30 05:03:59;;;;;;;12.52;3.22;;;13.60;99.90;;;;;;5054388;28;20091;-51
2023/06/30 05:06:24;;;;;;;10.05;2.90;;;13.70;99.90;;;;;;5052916;28;20033;-52
2023/06/30 05:08:50;;;;;;;9.43;4.05;;;13.70;99.90;;;;;;5056712;28;20044;-53
2023/06/30 05:11:16;;;;;;;10.00;3.72;;;13.80;99.90;;;;;;5054057;28;20060;-50
2023/06/30 05:13:41;;;;;;;9.82;3.78;;;13.80;99.90;;;;;;5060738;28;20032;-50
2023/06/30 05:16:08;;;;;;;7.20;3.15;;;13.90;99.90;;;;;;5059922;28;20041;-52
2023/06/30 05:18:34;;;;;;;9.05;3.58;;;14.00;99.90;;;;;;5057750;28;20049;-53
2023/06/30 05:20:59;;;;;;;12.13;4.38;;;14.00;99.90;;;;;;5055706;28;20033;-52
2023/06/30 05:23:25;;;;;;;5.90;2.20;;;14.10;99.90;;;;;;5060682;28;20158;-55
2023/06/30 05:25:51;;;;;;;8.52;3.17;;;14.20;99.90;;;;;;5069716;28;20597;-52
2023/06/30 05:28:16;;;;;;;10.50;2.83;;;14.30;99.90;;;;;;5062237;28;20132;-50
2023/06/30 05:30:42;;;;;;;13.15;2.83;;;14.30;99.90;;;;;;5057446;28;20032;-51
2023/06/30 05:33:07;;;;;;;8.43;3.15;;;14.40;99.90;;;;;;5063667;28;20048;-50
2023/06/30 05:35:33;;;;;;;5.53;2.65;;;14.50;99.90;;;;;;5053459;28;20033;-52
2023/06/30 05:37:59;;;;;;;10.10;2.70;;;14.70;99.90;;;;;;5053964;28;20032;-51
2023/06/30 05:40:25;;;;;;;9.88;2.53;;;14.80;99.90;;;;;;5066151;28;20099;-53
2023/06/30 05:42:51;;;;;;;5.82;2.28;;;14.90;99.90;;;;;;5067190;28;20052;-53
2023/06/30 05:45:17;;;;;;;8.02;2.90;;;15.00;99.90;;;;;;5050820;28;20035;-52
2023/06/30 05:47:42;;;;;;;5.72;1.98;;;15.10;99.90;;;;;;5049892;28;20048;-54
2023/06/30 05:50:08;;;;;;;12.85;2.53;;;15.20;99.90;;;;;;5063320;28;20032;-51
2023/06/30 05:52:34;;;;;;;6.15;2.05;;;15.40;99.90;;;;;;5066762;28;20033;-54
2023/06/30 05:54:59;;;;;;;6.47;1.35;;;15.50;99.90;;;;;;5051924;28;20037;-50
2023/06/30 05:57:26;;;;;;;5.88;2.03;;;15.60;99.90;;;;;;5050378;28;20039;-55
2023/06/30 05:59:52;;;;;;;8.40;1.73;;;15.80;99.90;;;;;;5054778;28;20040;-51
2023/06/30 06:02:18;;;;;;;8.25;1.30;;;15.90;99.90;;;;;;5050391;28;20631;-50
2023/06/30 06:04:44;;;;;;;4.97;1.67;;;16.00;99.90;;;;;;5062268;28;20040;-54
2023/06/30 06:07:09;;;;;;;7.43;1.92;;;16.20;99.90;;;;;;5068794;28;20040;-52
2023/06/30 06:09:35;;;;;;;8.57;1.58;;;16.30;99.90;;;;;;5066616;28;20116;-51
2023/06/30 06:12:02;;;;;;;4.90;1.80;;;16.50;99.90;;;;;;5059537;28;20045;-52
2023/06/30 06:14:27;;;;;;;3.42;1.50;;;16.60;99.90;;;;;;5059513;28;20115;-50
2023/06/30 06:16:53;;;;;;;7.78;1.40;;;16.70;99.90;;;;;;5066834;28;20140;-50
2023/06/30 06:19:20;;;;;;;47.22;4.25;;;16.70;99.90;;;;;;5053618;28;20112;-55
2023/06/30 06:21:46;;;;;;;13.73;1.90;;;16.80;99.90;;;;;;5060693;28;20052;-50
2023/06/30 06:24:12;;;;;;;8.32;1.75;;;16.90;99.90;;;;;;5066182;28;20035;-49
2023/06/30 06:26:38;;;;;;;6.47;1.58;;;16.90;99.90;;;;;;5064085;28;20645;-54
2023/06/30 06:29:03;;;;;;;6.75;1.45;;;16.80;99.90;;;;;;5057904;28;20021;-51
2023/06/30 06:31:29;;;;;;;14.18;1.75;;;16.90;99.90;;;;;;5050163;28;20132;-50
2023/06/30 06:33:55;;;;;;;6.15;1.10;;;17.00;99.90;;;;;;5054669;28;20036;-52
2023/06/30 06:36:21;;;;;;;6.72;1.27;;;17.20;99.90;;;;;;5058458;28;20037;-56
2023/06/30 06:38:47;;;;;;;6.75;1.20;;;17.40;99.90;;;;;;5057966;28;20049;-52
2023/06/30 06:41:13;;;;;;;4.85;1.33;;;17.50;99.90;;;;;;5068148;28;20060;-50
2023/06/30 06:43:38;;;;;;;5.20;0.98;;;17.60;99.90;;;;;;5065693;28;20032;-50
2023/06/30 06:46:04;;;;;;;10.00;1.80;;;17.70;99.90;;;;;;5050247;28;20379;-50
2023/06/30 06:48:29;;;;;;;5.72;1.45;;;17.80;99.90;;;;;;5049244;28;20048;-52
2023/06/30 06:51:00;;;;;;;6.30;0.90;;;17.90;99.90;;;;;;5065629;28;20060;-55
2023/06/30 06:53:30;;;;;;;9.18;1.25;;;18.00;99.90;;;;;;5067280;28;20036;-53
2023/06/30 06:55:57;;;;;;;9.05;0.98;;;18.10;99.90;;;;;;5058212;28;20043;-50
2023/06/30 06:58:24;;;;;;;7.85;1.13;;;18.20;99.90;;;;;;5058656;28;20028;-50
2023/06/30 07:00:51;;;;;;;7.85;1.15;;;18.40;99.90;;;;;;5063984;28;20047;-53
2023/06/30 07:03:19;;;;;;;9.23;0.98;;;18.70;99.90;;;;;;5067189;28;20025;-50
2023/06/30 07:05:45;;;;;;;9.43;0.73;;;18.80;99.90;;;;;;5056419;28;20048;-51
2023/06/30 07:08:12;;;;;;;4.50;0.60;;;19.00;99.90;;;;;;5049559;28;20041;-53
2023/06/30 07:10:37;;;;;;;6.72;0.68;;;19.00;99.90;;;;;;5062832;28;20672;-49
2023/06/30 07:13:04;;;;;;;9.95;0.73;;;18.90;99.90;;;;;;5065728;28;20049;-53
2023/06/30 07:15:30;;;;;;;4.88;0.70;;;18.90;99.90;;;;;;5064449;28;20040;-51
2023/06/30 07:17:58;;;;;;;7.13;0.60;;;18.90;99.90;;;;;;5067033;28;20043;-50
2023/06/30 07:20:24;;;;;;;7.45;0.90;;;18.90;99.90;;;;;;5062409;28;20047;-55
2023/06/30 07:22:50;;;;;;;;;;;18.80;99.90;;;;;;5050908;28;20039;-55
2023/06/30 07:25:16;;;;;;;5.63;0.88;;;18.80;99.90;;;;;;5051726;28;19962;-50
2023/06/30 07:27:49;;;;;;;;;;;18.70;99.90;;;;;;5051246;28;20489;-50
2023/06/30 07:30:14;;;;;;;7.40;0.55;;;18.80;99.90;;;;;;5052381;28;20645;-54
2023/06/30 07:32:41;;;;;;;2.55;0.50;;;18.90;99.90;;;;;;5055567;28;20043;-50
2023/06/30 07:35:07;;;;;;;7.45;0.85;;;19.00;99.90;;;;;;5054570;28;20033;-51
2023/06/30 07:37:33;;;;;;;6.93;0.73;;;19.10;99.90;;;;;;5058040;28;20040;-51
2023/06/30 07:39:58;;;;;;;2.45;0.43;;;19.10;99.90;;;;;;5055587;28;20049;-57
2023/06/30 07:42:24;;;;;;;11.13;0.70;;;19.00;99.90;;;;;;5058198;28;20041;-51
2023/06/30 07:44:50;;;;;;;;;;;19.00;99.90;;;;;;5063600;28;20040;-51
2023/06/30 07:47:18;;;;;;;3.33;0.55;;;18.90;99.90;;;;;;5058429;28;19924;-52
2023/06/30 07:49:44;;;;;;;7.55;0.60;;;18.90;99.90;;;;;;5054222;28;20119;-52
2023/06/30 07:52:10;;;;;;;2.92;0.32;;;18.90;99.90;;;;;;5055620;28;20167;-51
2023/06/30 07:54:35;;;;;;;6.82;0.43;;;18.90;99.90;;;;;;5050580;28;20493;-56
2023/06/30 07:57:01;;;;;;;6.65;0.52;;;19.00;99.90;;;;;;5048665;28;20844;-52
2023/06/30 07:59:26;;;;;;;;;;;19.00;99.90;;;;;;5052012;28;20045;-52
2023/06/30 08:01:52;;;;;;;2.20;0.50;;;19.00;99.90;;;;;;5052682;28;20351;-54
2023/06/30 08:04:18;;;;;;;;;;;19.10;99.90;;;;;;5055517;28;20076;-53
2023/06/30 08:06:44;;;;;;;4.65;0.55;;;19.30;99.90;;;;;;5058362;28;19917;-51
2023/06/30 08:09:10;;;;;;;4.68;0.30;;;19.40;99.90;;;;;;5053558;28;20561;-55
2023/06/30 08:11:36;;;;;;;4.88;0.52;;;19.60;99.90;;;;;;5057310;28;20124;-51
2023/06/30 08:14:04;;;;;;;;;;;19.60;99.90;;;;;;5057597;28;20040;-53
2023/06/30 08:16:29;;;;;;;2.90;0.50;;;19.70;99.90;;;;;;5050617;28;20441;-51
2023/06/30 08:18:55;;;;;;;6.75;0.63;;;19.60;99.90;;;;;;5056011;28;20124;-55
2023/06/30 08:21:21;;;;;;;3.08;0.40;;;19.60;99.90;;;;;;5062578;28;20071;-53
2023/06/30 08:23:46;;;;;;;;;;;19.70;99.90;;;;;;5058736;28;20128;-51
2023/06/30 08:26:12;;;;;;;5.45;0.60;;;19.80;99.90;;;;;;5061514;28;19923;-52
2023/06/30 08:28:38;;;;;;;5.57;0.50;;;19.80;99.90;;;;;;5061420;28;20032;-51
2023/06/30 08:31:03;;;;;;;3.28;0.35;;;19.60;99.90;;;;;;5057554;28;20051;-54
2023/06/30 08:33:29;;;;;;;3.67;0.50;;;19.50;99.90;;;;;;5059547;28;20041;-51
2023/06/30 08:35:55;;;;;;;3.08;0.40;;;19.50;99.90;;;;;;5057702;28;20298;-52
2023/06/30 08:38:20;;;;;;;;;;;19.60;99.90;;;;;;5061351;28;20037;-50
2023/06/30 08:40:46;;;;;;;14.23;0.75;;;19.80;99.90;;;;;;5056313;28;19936;-51
2023/06/30 08:43:12;;;;;;;3.28;0.40;;;20.10;99.90;;;;;;5056798;28;20043;-54
2023/06/30 08:45:38;;;;;;;;;;;20.20;99.90;;;;;;5059181;28;20032;-51
2023/06/30 08:48:05;;;;;;;4.13;0.30;;;20.30;99.90;;;;;;5056704;28;19920;-51
2023/06/30 08:50:35;;;;;;;2.05;0.40;;;20.40;99.90;;;;;;5059809;28;20560;-51
2023/06/30 08:53:02;;;;;;;1.60;0.43;;;20.40;99.90;;;;;;5058317;28;20132;-53
2023/06/30 08:55:29;;;;;;;2.70;0.20;;;20.50;99.60;;;;;;5059350;28;20037;-51
2023/06/30 08:57:56;;;;;;;3.83;0.20;;;20.60;99.50;;;;;;5056179;28;20055;-55
2023/06/30 09:00:22;;;;;;;1.52;0.20;;;20.70;98.70;;;;;;5061659;28;20047;-51
2023/06/30 09:02:49;;;;;;;2.30;0.30;;;20.80;98.40;;;;;;5056853;28;20037;-51
2023/06/30 09:05:15;;;;;;;1.48;0.15;;;20.90;98.40;;;;;;5057755;28;20445;-51
2023/06/30 09:07:54;;;;;;;3.45;0.20;;;21.10;97.50;;;;;;5057293;28;20094;-50
2023/06/30 09:10:23;;;;;;;1.30;0.30;;;21.20;96.20;;;;;;5059073;28;20040;-55
2023/06/30 09:12:51;;;;;;;1.27;0.35;;;21.30;96.70;;;;;;5057980;28;20507;-51
2023/06/30 09:15:19;;;;;;;1.83;0.30;;;21.30;96.80;;;;;;5058315;28;20084;-52
2023/06/30 09:17:44;;;;;;;5.10;0.47;;;21.30;97.10;;;;;;5061785;28;20766;-52
2023/06/30 09:20:13;;;;;;;;;;;21.20;96.20;;;;;;5060989;28;20033;-51
2023/06/30 09:22:42;;;;;;;1.73;0.30;;;20.90;96.40;;;;;;5058628;28;20354;-53
2023/06/30 09:25:27;;;;;;;3.15;0.30;;;20.80;96.80;;;;;;5061033;28;20540;-51
2023/06/30 09:27:54;;;;;;;3.08;0.20;;;20.90;95.80;;;;;;5058789;28;20523;-51
2023/06/30 09:30:44;;;;;;;3.08;0.30;;;21.10;96.70;;;;;;5057266;28;20033;-54
2023/06/30 09:33:13;;;;;;;4.95;0.40;;;21.40;96.50;;;;;;5060500;28;20064;-55
2023/06/30 09:35:40;;;;;;;3.65;0.20;;;21.50;96.80;;;;;;5058662;28;20037;-54
2023/06/30 09:38:17;;;;;;;3.35;0.30;;;21.60;96.10;;;;;;5062284;28;20670;-53
2023/06/30 09:40:48;;;;;;;2.47;0.45;;;21.70;95.80;;;;;;5053498;28;20545;-53
2023/06/30 09:43:19;;;;;;;2.13;0.25;;;21.70;95.60;;;;;;5057760;28;20033;-51
2023/06/30 09:45:55;;;;;;;6.65;0.40;;;21.70;95.70;;;;;;5055231;28;20044;-54
2023/06/30 09:48:26;;;;;;;1.38;0.20;;;21.70;95.50;;;;;;5058446;28;20051;-54
2023/06/30 09:50:52;;;;;;;1.13;0.20;;;21.80;95.70;;;;;;5060938;28;20241;-52
2023/06/30 09:53:19;;;;;;;;;;;22.00;94.80;;;;;;5059366;28;20047;-50
2023/06/30 09:55:51;;;;;;;3.38;0.22;;;22.10;94.00;;;;;;5055515;28;20397;-51
2023/06/30 09:58:20;;;;;;;0.88;0.22;;;22.10;94.20;;;;;;5057904;28;20037;-51
2023/06/30 10:00:47;;;;;;;5.10;0.50;;;22.10;94.10;;;;;;5056731;28;20521;-51
2023/06/30 10:03:19;;;;;;;3.13;0.20;;;22.10;94.20;;;;;;5058905;28;20436;-51
2023/06/30 10:05:46;;;;;;;1.45;0.20;;;22.00;94.30;;;;;;5058243;28;20082;-51
2023/06/30 10:08:13;;;;;;;1.48;0.30;;;21.90;94.00;;;;;;5059562;28;20032;-50
2023/06/30 10:10:41;;;;;;;2.85;0.20;;;21.80;94.20;;;;;;5054212;28;20033;-51
2023/06/30 10:13:07;;;;;;;2.63;0.50;;;21.80;94.60;;;;;;5057785;28;20751;-52
2023/06/30 10:15:34;;;;;;;;;;;21.90;94.40;;;;;;5055933;28;20045;-51
2023/06/30 10:18:02;;;;;;;0.90;0.40;;;22.10;94.20;;;;;;5059307;28;19917;-53
2023/06/30 10:20:29;;;;;;;9.00;0.57;;;22.10;93.60;;;;;;5061621;28;20037;-55
2023/06/30 10:22:56;;;;;;;4.95;0.60;;;22.10;93.50;;;;;;5057611;28;20048;-57
2023/06/30 10:25:24;;;;;;;2.65;0.60;;;22.10;93.90;;;;;;5059109;28;20075;-53
2023/06/30 10:27:50;;;;;;;4.45;0.28;;;22.20;93.60;;;;;;5056671;28;20534;-54
2023/06/30 10:30:17;;;;;;;5.05;0.40;;;22.30;94.00;;;;;;5061153;28;20060;-52
2023/06/30 10:32:43;;;;;;;2.03;0.30;;;22.40;93.20;;;;;;5056559;28;20517;-51
2023/06/30 10:35:09;;;;;;;;;;;22.50;92.70;;;;;;5060751;28;20064;-53
2023/06/30 10:37:35;;;;;;;1.23;0.38;;;22.50;91.70;;;;;;5058499;28;19916;-53
2023/06/30 10:40:08;;;;;;;2.65;0.30;;;22.40;92.50;;;;;;5057094;28;20032;-53
2023/06/30 10:42:37;;;;;;;3.33;0.22;;;22.40;92.50;;;;;;5058258;28;20088;-54
2023/06/30 10:45:03;;;;;;;1.63;0.20;;;22.40;92.60;;;;;;5056862;28;20562;-51
2023/06/30 10:47:29;;;;;;;;;;;22.30;92.50;;;;;;5059100;28;20032;-54
2023/06/30 10:49:54;;;;;;;3.80;0.30;;;22.10;91.80;;;;;;5053825;28;20019;-54
2023/06/30 10:52:24;;;;;;;;;;;22.00;92.50;;;;;;5058644;28;20041;-55
2023/06/30 10:54:50;;;;;;;2.90;0.40;;;22.00;92.80;;;;;;5053329;28;20378;-51
2023/06/30 10:57:19;;;;;;;;;;;21.90;92.80;;;;;;5055483;28;20051;-51
2023/06/30 11:00:03;;;;;;;3.90;0.60;;;21.80;92.80;;;;;;5053160;28;20023;-54
2023/06/30 11:02:31;;;;;;;3.40;0.55;;;21.80;93.60;;;;;;5060062;28;20041;-53
2023/06/30 11:05:20;;;;;;;1.08;0.30;;;22.00;93.20;;;;;;5055383;28;20056;-54
2023/06/30 11:07:48;;;;;;;2.63;0.52;;;22.00;91.30;;;;;;5055153;28;20104;-53
2023/06/30 11:10:25;;;;;;;2.45;0.30;;;22.00;91.90;;;;;;5055331;28;20116;-51
2023/06/30 11:12:56;;;;;;;4.47;0.40;;;22.00;92.20;;;;;;5052158;28;20037;-51
2023/06/30 11:15:55;;;;;;;2.90;0.38;;;22.10;92.10;;;;;;5055634;28;20036;-52
2023/06/30 11:18:22;;;;;;;3.42;0.40;;;22.20;91.60;;;;;;4983788;28;20126;-54
2023/06/30 11:21:07;;;;;;;2.00;0.45;;;22.30;91.40;;;;;;4985550;28;20050;-51
2023/06/30 11:23:37;;;;;;;5.65;0.40;;;22.30;91.00;;;;;;4984290;28;20046;-51
2023/06/30 11:26:14;;;;;;;5.35;0.88;;;22.20;91.40;;;;;;4984103;28;20038;-51
2023/06/30 11:28:43;;;;;;;1.77;0.22;;;22.20;91.20;;;;;;4982625;28;20049;-51
2023/06/30 11:31:11;;;;;;;2.08;0.40;;;22.20;91.40;;;;;;4984664;28;20046;-51
2023/06/30 11:33:41;;;;;;;2.35;0.40;;;22.10;91.30;;;;;;4981930;28;20050;-51
2023/06/30 11:36:14;;;;;;;1.45;0.30;;;22.20;91.20;;;;;;4980493;28;20062;-53
2023/06/30 11:38:46;;;;;;;5.20;0.55;;;22.30;91.20;;;;;;4980261;28;20042;-52
2023/06/30 11:41:20;;;;;;;4.53;0.50;;;22.30;91.00;;;;;;4984408;28;20061;-52
2023/06/30 11:43:55;;;;;;;5.38;0.40;;;22.30;90.40;;;;;;4949272;28;20050;-52
2023/06/30 11:46:21;;;;;;;5.03;0.50;;;22.10;90.70;;;;;;4958639;28;20050;-53
2023/06/30 11:48:48;;;;;;;2.75;0.60;;;22.30;91.20;;;;;;4983341;28;20301;-54
2023/06/30 11:51:14;;;;;;;3.22;0.63;;;22.50;90.30;;;;;;4986179;28;20057;-52
2023/06/30 11:53:45;;;;;;;;;;;22.70;91.00;;;;;;4985815;28;20049;-55
2023/06/30 11:56:11;;;;;;;0.80;0.30;;;22.90;89.80;;;;;;5054365;28;19921;-51
2023/06/30 11:58:37;;;;;;;;;;;23.00;90.00;;;;;;5055641;28;20113;-50
2023/06/30 12:01:04;;;;;;;7.97;0.68;;;23.10;87.80;;;;;;5063621;28;19924;-51
2023/06/30 12:03:29;;;;;;;3.42;0.30;;;23.10;88.10;;;;;;5053105;28;20052;-50
2023/06/30 12:05:58;;;;;;;2.42;0.55;;;23.10;87.20;;;;;;5053785;28;20029;-51
2023/06/30 12:08:27;;;;;;;1.40;0.45;;;23.10;87.50;;;;;;5058605;28;20163;-51
2023/06/30 12:10:53;;;;;;;1.90;0.63;;;23.20;83.70;;;;;;5057238;28;20044;-52
2023/06/30 12:13:19;;;;;;;3.50;0.32;;;23.00;85.40;;;;;;5056500;28;20037;-54
2023/06/30 12:15:46;;;;;;;3.70;0.43;;;23.10;86.30;;;;;;5054956;28;20109;-50
2023/06/30 12:18:12;;;;;;;1.35;0.30;;;23.10;85.10;;;;;;5054898;28;20517;-50
2023/06/30 12:20:39;;;;;;;2.10;0.40;;;23.20;85.40;;;;;;5055954;28;20040;-51
2023/06/30 12:23:06;;;;;;;3.40;0.43;;;23.30;85.40;;;;;;5058613;28;20496;-50
2023/06/30 12:25:36;;;;;;;2.45;0.50;;;23.30;85.80;;;;;;5055081;28;20041;-52
2023/06/30 12:28:05;;;;;;;3.92;0.30;;;23.40;85.00;;;;;;5060074;28;20158;-52
2023/06/30 12:30:31;;;;;;;3.53;0.50;;;23.60;84.90;;;;;;5059803;28;20069;-50
2023/06/30 12:32:59;;;;;;;3.08;0.30;;;23.80;85.20;;;;;;5057840;28;20055;-55
2023/06/30 12:35:29;;;;;;;6.70;0.75;;;23.90;84.30;;;;;;5058366;28;20063;-50
2023/06/30 12:37:55;;;;;;;2.85;0.75;;;24.00;83.80;;;;;;5053759;28;20112;-50
2023/06/30 12:40:22;;;;;;;2.40;0.40;;;24.00;82.80;;;;;;5056427;28;20720;-53
2023/06/30 12:42:48;;;;;;;0.90;0.28;;;23.90;81.90;;;;;;5057288;28;20123;-53
2023/06/30 12:45:14;;;;;;;2.80;0.57;;;23.90;83.40;;;;;;5057874;28;20242;-50
2023/06/30 12:47:40;;;;;;;3.30;0.65;;;24.00;83.10;;;;;;5056752;28;20128;-52
2023/06/30 12:50:06;;;;;;;2.15;0.35;;;24.10;82.70;;;;;;5054175;28;20163;-53
2023/06/30 12:52:31;;;;;;;2.50;0.40;;;24.10;81.80;;;;;;5058192;28;20407;-50